Time;durP1;ratioP1;P1;durP2;ratioP2;P2;SDS_P1;SDS_P2;PMS_P1;PMS_P2;Temp;Humidity;BMP_temperature;BMP_pressure;BME280_temperature;BME280_humidity;BME280_pressure;Samples;Min_cycle;Max_cycle;Signal;HPM_P1;HPM_P2
2022/01/08 00:01:33;;;;;;;4.50;4.20;;;;;;;4.20;71.24;94928.53;5021073;28;20212;-64
2022/01/08 00:04:00;;;;;;;4.55;4.15;;;;;;;4.25;71.20;94931.94;5020930;28;20675;-64
2022/01/08 00:06:27;;;;;;;4.03;3.72;;;;;;;4.23;70.89;94928.72;5021704;28;20592;-64
2022/01/08 00:08:54;;;;;;;4.20;3.90;;;;;;;4.18;71.19;94926.13;5038045;28;20197;-64
2022/01/08 00:11:25;;;;;;;3.80;3.60;;;;;;;4.15;71.66;94921.31;5021108;28;20546;-64
2022/01/08 00:13:53;;;;;;;4.20;3.90;;;;;;;4.14;71.57;94919.69;5038214;28;20183;-64
2022/01/08 00:16:19;;;;;;;4.35;4.05;;;;;;;4.04;71.91;94920.78;5020867;28;20206;-64
2022/01/08 00:18:46;;;;;;;4.50;4.20;;;;;;;4.00;72.01;94914.34;5037905;28;20244;-64
2022/01/08 00:21:14;;;;;;;4.18;3.88;;;;;;;4.04;72.03;94909.06;5020702;28;20562;-64
2022/01/08 00:23:40;;;;;;;4.47;4.18;;;;;;;4.07;71.88;94914.69;5037628;28;20553;-64
2022/01/08 00:26:07;;;;;;;4.20;3.90;;;;;;;4.05;71.49;94903.28;5038157;28;20190;-64
2022/01/08 00:28:35;;;;;;;4.07;3.83;;;;;;;4.00;72.00;94910.81;5038108;28;20191;-64
2022/01/08 00:31:03;;;;;;;3.95;3.67;;;;;;;4.01;71.68;94904.22;5020202;28;20198;-64
2022/01/08 00:33:30;;;;;;;4.07;3.78;;;;;;;3.98;72.04;94907.59;5020352;28;20198;-64
2022/01/08 00:35:57;;;;;;;4.10;3.80;;;;;;;4.03;71.77;94900.06;5020069;28;20203;-64
2022/01/08 00:38:23;;;;;;;3.88;3.67;;;;;;;4.08;71.43;94896.38;5037783;28;20190;-64
2022/01/08 00:40:50;;;;;;;3.63;3.42;;;;;;;4.09;71.39;94887.06;5020082;28;20206;-64
2022/01/08 00:43:17;;;;;;;4.00;3.70;;;;;;;4.09;71.46;94892.53;5019868;28;20210;-64
2022/01/08 00:45:45;;;;;;;3.80;3.60;;;;;;;4.07;71.74;94897.50;5020348;28;20252;-64
2022/01/08 00:48:12;;;;;;;3.70;3.50;;;;;;;4.04;71.72;94892.69;5020540;28;20206;-64
2022/01/08 00:50:39;;;;;;;3.90;3.70;;;;;;;3.97;71.81;94889.59;5037886;28;20197;-64
2022/01/08 00:53:05;;;;;;;3.60;3.40;;;;;;;3.93;71.91;94896.81;5037735;28;20194;-64
2022/01/08 00:55:32;;;;;;;4.13;3.83;;;;;;;3.87;71.95;94887.94;5020255;28;20205;-64
2022/01/08 00:57:59;;;;;;;3.45;3.25;;;;;;;3.84;72.05;94888.56;5020100;28;20195;-64
2022/01/08 01:00:26;;;;;;;3.50;3.30;;;;;;;3.83;72.09;94887.78;5037434;28;20187;-64
2022/01/08 01:02:54;;;;;;;3.40;3.20;;;;;;;3.80;72.23;94888.41;5036964;28;20218;-64
2022/01/08 01:05:21;;;;;;;3.50;3.30;;;;;;;3.91;71.78;94893.59;5037011;28;20524;-64
2022/01/08 01:07:48;;;;;;;3.20;3.00;;;;;;;3.88;71.55;94888.75;5020071;28;20212;-64
2022/01/08 01:10:17;;;;;;;3.55;3.35;;;;;;;3.86;72.04;94876.25;5019909;28;20236;-64
2022/01/08 01:12:44;;;;;;;3.65;3.40;;;;;;;3.82;71.84;94879.91;5019811;28;20293;-64
2022/01/08 01:15:14;;;;;;;3.70;3.40;;;;;;;3.75;72.09;94876.84;5036981;28;20202;-64
2022/01/08 01:17:41;;;;;;;3.65;3.45;;;;;;;3.75;72.09;94872.19;5037048;28;20226;-64
2022/01/08 01:20:12;;;;;;;3.53;3.33;;;;;;;3.85;72.15;94873.84;5019254;28;20195;-64
2022/01/08 01:22:47;;;;;;;3.20;3.00;;;;;;;3.91;72.06;94863.56;5036489;28;20309;-64
2022/01/08 01:25:19;;;;;;;3.47;3.28;;;;;;;3.88;71.80;94861.47;5037161;28;20593;-64
2022/01/08 01:30:55;;;;;;;3.22;3.03;;;;;;;3.79;72.24;94851.34;5035885;28;20221;-64
2022/01/08 01:41:49;;;;;;;3.05;2.85;;;;;;;3.69;72.41;94850.81;5019305;28;20202;-64
2022/01/08 01:47:03;;;;;;;3.30;3.10;;;;;;;3.61;72.94;94839.53;5036396;28;20179;-64
2022/01/08 01:49:31;;;;;;;3.10;2.90;;;;;;;3.64;72.91;94827.22;5036423;28;20273;-64
2022/01/08 01:52:00;;;;;;;2.92;2.72;;;;;;;3.58;72.77;94829.25;5035705;28;20197;-64
2022/01/08 01:54:28;;;;;;;2.80;2.65;;;;;;;3.64;72.93;94829.13;5019197;28;20197;-64
2022/01/08 01:56:55;;;;;;;2.65;2.53;;;;;;;3.63;72.97;94839.22;5036276;28;20182;-64
2022/01/08 01:59:22;;;;;;;2.90;2.70;;;;;;;3.65;72.88;94828.81;5018989;28;20191;-64
2022/01/08 02:01:48;;;;;;;3.20;3.00;;;;;;;3.71;72.75;94824.84;5036293;28;20194;-64
2022/01/08 02:04:15;;;;;;;3.20;3.00;;;;;;;3.81;72.14;94826.44;5036015;28;20207;-64
2022/01/08 02:06:42;;;;;;;2.92;2.72;;;;;;;3.81;71.81;94824.56;5036421;28;20182;-64
2022/01/08 02:09:10;;;;;;;2.88;2.67;;;;;;;3.79;72.11;94823.25;5036013;28;20194;-64
2022/01/08 02:11:55;;;;;;;3.22;3.03;;;;;;;3.77;72.24;94820.81;5036028;28;20206;-64
2022/01/08 02:14:22;;;;;;;2.90;2.70;;;;;;;3.77;71.98;94817.28;5035643;28;20190;-64
2022/01/08 02:16:49;;;;;;;2.65;2.45;;;;;;;3.78;72.18;94818.94;5035900;28;20244;-64
2022/01/08 02:19:15;;;;;;;2.75;2.58;;;;;;;3.75;72.38;94806.72;5035882;28;20204;-65
2022/01/08 02:21:48;;;;;;;2.78;2.58;;;;;;;3.74;72.40;94796.94;5018645;28;20191;-64
2022/01/08 02:24:15;;;;;;;3.00;2.75;;;;;;;3.75;72.53;94787.63;5036242;28;20209;-65
2022/01/08 02:26:41;;;;;;;2.97;2.78;;;;;;;3.67;72.25;94780.22;5035825;28;20197;-64
2022/01/08 02:29:11;;;;;;;2.70;2.55;;;;;;;3.67;72.37;94780.22;5018737;28;20190;-64
2022/01/08 02:31:38;;;;;;;2.55;2.45;;;;;;;3.65;72.57;94784.38;5018374;28;20213;-64
2022/01/08 02:34:06;;;;;;;2.55;2.42;;;;;;;3.65;72.66;94770.75;5018528;28;20197;-64
2022/01/08 02:36:33;;;;;;;2.97;2.78;;;;;;;3.55;72.58;94769.09;5018577;28;20228;-64
2022/01/08 02:39:01;;;;;;;2.92;2.72;;;;;;;3.47;72.98;94765.22;5035406;28;20189;-64
2022/01/08 02:41:28;;;;;;;2.80;2.70;;;;;;;3.50;73.37;94780.16;5035590;28;20201;-64
2022/01/08 02:43:55;;;;;;;2.88;2.67;;;;;;;3.52;73.40;94770.53;5035461;28;20626;-64
2022/01/08 02:46:22;;;;;;;2.60;2.50;;;;;;;3.59;73.14;94765.44;5018286;28;20198;-64
2022/01/08 02:48:49;;;;;;;2.83;2.63;;;;;;;3.66;72.81;94766.88;5035273;28;20206;-64
2022/01/08 02:51:16;;;;;;;2.72;2.55;;;;;;;3.60;72.90;94758.06;5035319;28;20179;-64
2022/01/08 02:53:43;;;;;;;3.20;3.00;;;;;;;3.56;73.34;94763.34;5017659;28;20278;-64
2022/01/08 02:56:11;;;;;;;3.17;2.90;;;;;;;3.55;73.22;94769.09;5035064;28;20182;-64
2022/01/08 02:58:38;;;;;;;2.67;2.55;;;;;;;3.52;73.53;94765.09;5035346;28;20206;-64
2022/01/08 03:01:05;;;;;;;2.63;2.53;;;;;;;3.51;73.49;94749.81;5018245;28;20285;-64
2022/01/08 03:03:31;;;;;;;2.90;2.70;;;;;;;3.47;73.90;94751.59;5034957;28;20282;-64
2022/01/08 03:05:58;;;;;;;2.97;2.78;;;;;;;3.48;73.77;94763.28;5035393;28;20199;-64
2022/01/08 03:08:26;;;;;;;2.95;2.78;;;;;;;3.38;74.10;94762.47;5035222;28;20216;-64
2022/01/08 03:10:53;;;;;;;2.83;2.63;;;;;;;3.42;73.93;94761.84;5018087;28;20206;-64
2022/01/08 03:13:21;;;;;;;3.10;2.90;;;;;;;3.49;73.50;94759.47;5035277;28;20194;-64
2022/01/08 03:15:48;;;;;;;3.20;3.00;;;;;;;3.46;73.90;94760.88;5035118;28;20210;-65
2022/01/08 03:18:16;;;;;;;3.22;3.03;;;;;;;3.40;74.17;94759.41;5017564;28;20234;-64
2022/01/08 03:20:48;;;;;;;3.30;3.10;;;;;;;3.47;74.28;94769.88;5035087;28;20187;-64
2022/01/08 03:23:16;;;;;;;3.38;3.03;;;;;;;3.51;73.59;94768.91;5017902;28;20222;-64
2022/01/08 03:25:43;;;;;;;3.20;3.00;;;;;;;3.54;73.90;94760.09;5017717;28;20538;-64
2022/01/08 03:28:11;;;;;;;3.30;3.10;;;;;;;3.48;74.09;94760.56;5018309;28;20209;-64
2022/01/08 03:30:39;;;;;;;2.80;2.60;;;;;;;3.26;75.21;94755.97;5017700;28;20206;-64
2022/01/08 03:33:06;;;;;;;3.03;2.83;;;;;;;3.30;75.14;94763.22;5035106;28;20191;-64
2022/01/08 03:35:33;;;;;;;3.05;2.85;;;;;;;3.29;75.17;94761.63;5017573;28;20183;-64
2022/01/08 03:38:00;;;;;;;2.97;2.72;;;;;;;3.29;74.94;94758.88;5017991;28;20206;-64
2022/01/08 03:40:27;;;;;;;3.00;2.80;;;;;;;3.33;74.66;94759.88;5035135;28;20183;-64
2022/01/08 03:42:54;;;;;;;3.20;3.00;;;;;;;3.28;75.24;94753.75;5034949;28;20183;-64
2022/01/08 03:45:21;;;;;;;2.78;2.58;;;;;;;3.33;75.00;94742.72;5017204;28;20194;-64
2022/01/08 03:48:17;;;;;;;3.33;3.13;;;;;;;3.24;75.43;94734.50;5017413;28;20206;-64
2022/01/08 03:50:44;;;;;;;2.92;2.70;;;;;;;3.13;75.83;94733.97;5034827;28;20193;-64
2022/01/08 03:53:10;;;;;;;3.03;2.83;;;;;;;3.23;76.05;94734.81;5017545;28;20195;-64
2022/01/08 03:55:37;;;;;;;3.00;2.80;;;;;;;3.26;75.48;94729.53;5034553;28;20191;-64
2022/01/08 03:58:04;;;;;;;2.90;2.70;;;;;;;3.27;75.43;94722.19;5017160;28;20549;-64
2022/01/08 04:00:31;;;;;;;2.80;2.60;;;;;;;3.30;75.25;94716.06;5017439;28;20208;-64
2022/01/08 04:02:59;;;;;;;2.80;2.60;;;;;;;3.26;75.37;94724.06;5017434;28;20202;-64
2022/01/08 04:05:26;;;;;;;2.50;2.40;;;;;;;3.30;75.32;94711.41;5017527;28;20194;-64
2022/01/08 04:07:53;;;;;;;2.70;2.50;;;;;;;3.34;75.14;94715.16;5017764;28;20234;-64
2022/01/08 04:10:20;;;;;;;2.40;2.30;;;;;;;3.41;74.66;94713.88;5017283;28;20201;-64
2022/01/08 04:12:50;;;;;;;2.58;2.42;;;;;;;3.40;74.76;94715.78;5034688;28;20201;-64
2022/01/08 04:15:40;;;;;;;2.33;2.22;;;;;;;3.51;74.14;94725.28;5034765;28;20207;-64
2022/01/08 04:18:29;;;;;;;2.35;2.25;;;;;;;3.51;74.38;94727.22;5038461;28;20313;-64
2022/01/08 04:21:51;;;;;;;2.25;2.15;;;;;;;3.51;73.99;94729.94;5038068;28;20217;-64
2022/01/08 04:24:27;;;;;;;2.28;2.17;;;;;;;3.58;73.87;94733.00;5037841;28;20253;-64
2022/01/08 04:27:29;;;;;;;2.33;2.22;;;;;;;3.61;73.83;94730.44;5093468;27;20562;-64
2022/01/08 04:30:17;;;;;;;3.10;2.90;;;;;;;3.55;73.94;94728.19;5092565;28;20196;-64
2022/01/08 04:33:03;;;;;;;2.78;2.60;;;;;;;3.57;74.00;94732.22;5092970;28;20534;-65
2022/01/08 04:35:50;;;;;;;2.90;2.70;;;;;;;3.54;73.87;94724.66;5093012;28;20203;-65
2022/01/08 04:38:37;;;;;;;3.03;2.83;;;;;;;3.53;73.91;94720.34;5092553;28;20200;-65
2022/01/08 04:41:24;;;;;;;2.60;2.50;;;;;;;3.59;74.08;94724.53;5092828;28;20309;-65
2022/01/08 04:44:12;;;;;;;2.40;2.30;;;;;;;3.56;74.03;94719.72;5092442;28;20204;-65
2022/01/08 04:46:59;;;;;;;2.60;2.40;;;;;;;3.57;73.77;94724.03;5092291;28;20231;-65
2022/01/08 04:49:46;;;;;;;2.30;2.20;;;;;;;3.60;74.17;94719.88;5092177;28;20212;-65
2022/01/08 04:52:33;;;;;;;2.40;2.30;;;;;;;3.64;74.17;94723.56;5092110;28;20624;-65
2022/01/08 04:55:20;;;;;;;2.25;2.15;;;;;;;3.67;73.80;94722.94;5092747;28;20196;-67
2022/01/08 04:58:07;;;;;;;2.58;2.47;;;;;;;3.66;73.70;94715.84;5092641;28;20208;-65
2022/01/08 05:00:55;;;;;;;2.30;2.20;;;;;;;3.69;73.79;94719.88;5092090;28;20184;-65
2022/01/08 05:03:42;;;;;;;2.40;2.30;;;;;;;3.68;74.05;94727.25;5092812;28;20208;-65
2022/01/08 05:06:29;;;;;;;2.40;2.30;;;;;;;3.68;73.96;94729.19;5091978;28;20224;-65
2022/01/08 05:09:15;;;;;;;2.35;2.25;;;;;;;3.64;73.82;94731.75;5092143;28;20205;-65
2022/01/08 05:12:03;;;;;;;2.50;2.30;;;;;;;3.67;73.91;94733.03;5091949;28;20197;-65
2022/01/08 05:14:29;;;;;;;2.40;2.30;;;;;;;3.66;74.16;94728.69;5091198;28;20215;-65
2022/01/08 05:17:00;;;;;;;2.75;2.55;;;;;;;3.69;73.98;94720.69;5091668;28;20587;-65
2022/01/08 05:19:38;;;;;;;2.33;2.22;;;;;;;3.63;73.91;94724.66;5090721;28;20209;-65
2022/01/08 05:22:07;;;;;;;2.40;2.20;;;;;;;3.60;74.29;94712.50;5090873;28;20200;-65
2022/01/08 05:24:34;;;;;;;2.00;1.90;;;;;;;3.64;74.16;94717.31;5092059;28;20189;-64
2022/01/08 05:27:03;;;;;;;2.30;2.10;;;;;;;3.64;74.27;94709.94;5124779;28;20235;-65
2022/01/08 05:29:30;;;;;;;2.30;2.20;;;;;;;3.61;74.38;94716.03;5091031;28;20218;-64
2022/01/08 05:31:58;;;;;;;2.60;2.40;;;;;;;3.66;74.45;94715.06;5091339;28;20193;-64
2022/01/08 05:34:25;;;;;;;2.85;2.65;;;;;;;3.76;73.72;94707.38;5091597;28;20176;-64
2022/01/08 05:36:51;;;;;;;2.50;2.35;;;;;;;3.82;73.63;94714.31;5089512;28;20192;-64
2022/01/08 05:39:18;;;;;;;2.30;2.20;;;;;;;3.82;73.61;94721.69;5076781;28;20570;-64
2022/01/08 05:41:45;;;;;;;2.30;2.20;;;;;;;3.88;73.43;94722.31;5077833;28;20181;-65
2022/01/08 05:44:12;;;;;;;6.20;2.03;;;;;;;3.83;73.61;94713.16;5076924;28;20205;-65
2022/01/08 05:46:43;;;;;;;2.28;2.13;;;;;;;3.95;73.18;94718.00;5076861;28;20220;-65
2022/01/08 05:49:12;;;;;;;2.10;2.00;;;;;;;4.01;72.65;94724.09;5077911;28;20185;-65
2022/01/08 05:51:39;;;;;;;2.38;2.17;;;;;;;4.02;72.78;94722.97;5077822;28;20186;-65
2022/01/08 05:54:06;;;;;;;2.13;2.03;;;;;;;3.96;72.89;94714.16;5078026;28;20181;-65
2022/01/08 05:56:33;;;;;;;2.00;1.90;;;;;;;4.01;72.99;94699.56;5077269;28;20201;-65
2022/01/08 05:59:00;;;;;;;2.13;2.03;;;;;;;3.97;72.88;94707.56;5110501;28;20201;-64
2022/01/08 06:01:26;;;;;;;2.40;2.30;;;;;;;4.04;72.92;94702.44;5076773;28;20197;-65
2022/01/08 06:03:53;;;;;;;2.50;2.40;;;;;;;4.00;72.81;94700.69;5077214;28;20523;-65
2022/01/08 06:06:21;;;;;;;2.00;1.90;;;;;;;3.99;73.20;94705.31;5077441;28;20201;-65
2022/01/08 06:08:48;;;;;;;2.13;2.03;;;;;;;3.92;73.13;94699.56;5077237;28;20605;-65
2022/01/08 06:11:15;;;;;;;1.95;1.85;;;;;;;3.82;73.64;94700.66;5077265;28;20200;-65
2022/01/08 06:13:42;;;;;;;2.28;2.17;;;;;;;3.86;73.85;94701.63;5077068;28;20625;-65
2022/01/08 06:16:08;;;;;;;2.05;1.95;;;;;;;3.77;73.94;94702.72;5077387;28;20188;-65
2022/01/08 06:18:36;;;;;;;2.08;1.98;;;;;;;3.74;74.44;94695.16;5076486;28;20204;-65
2022/01/08 06:21:04;;;;;;;1.90;1.80;;;;;;;3.68;74.60;94701.91;5077307;28;20291;-65
2022/01/08 06:23:32;;;;;;;2.13;2.03;;;;;;;3.67;75.05;94706.56;5078214;28;20200;-65
2022/01/08 06:25:59;;;;;;;1.80;1.70;;;;;;;3.69;74.85;94714.44;5075737;28;20236;-65
2022/01/08 06:28:26;;;;;;;1.90;1.80;;;;;;;3.70;74.66;94697.72;5076303;28;20193;-65
2022/01/08 06:30:53;;;;;;;1.92;1.83;;;;;;;3.80;74.57;94700.16;5076642;28;20193;-65
2022/01/08 06:33:20;;;;;;;2.10;1.90;;;;;;;3.75;75.04;94697.59;5076354;28;20201;-65
2022/01/08 06:35:48;;;;;;;1.85;1.75;;;;;;;3.81;74.86;94692.78;5075677;28;20197;-65
2022/01/08 06:38:16;;;;;;;1.95;1.85;;;;;;;3.76;74.98;94696.47;5076992;28;20205;-65
2022/01/08 06:40:44;;;;;;;1.92;1.83;;;;;;;3.80;75.00;94696.63;5076898;28;20185;-65
2022/01/08 06:43:11;;;;;;;2.17;2.08;;;;;;;3.80;75.01;94697.44;5076653;28;20255;-65
2022/01/08 06:45:38;;;;;;;2.10;2.00;;;;;;;3.92;74.41;94688.66;5076377;28;20178;-65
2022/01/08 06:48:05;;;;;;;2.13;1.95;;;;;;;3.89;74.78;94693.94;5076648;28;20201;-65
2022/01/08 06:50:32;;;;;;;2.00;1.90;;;;;;;3.96;74.44;94689.59;5075626;28;20201;-64
2022/01/08 06:52:59;;;;;;;2.55;1.70;;;;;;;3.98;74.11;94689.28;5109566;28;20200;-64
2022/01/08 06:55:26;;;;;;;2.10;2.00;;;;;;;3.98;74.58;94692.00;5076260;28;20177;-64
2022/01/08 06:57:55;;;;;;;2.55;2.35;;;;;;;4.01;74.22;94689.44;5109834;28;20560;-64
2022/01/08 07:00:22;;;;;;;2.00;1.90;;;;;;;4.04;74.42;94686.06;5076429;28;20315;-64
2022/01/08 07:02:49;;;;;;;2.20;2.00;;;;;;;3.98;74.33;94692.81;5109525;28;20193;-64
2022/01/08 07:05:16;;;;;;;1.85;1.75;;;;;;;3.95;74.83;94692.63;5076365;28;20200;-66
2022/01/08 07:07:43;;;;;;;1.63;1.52;;;;;;;3.99;74.08;94701.78;5076615;28;20224;-64
2022/01/08 07:10:10;;;;;;;2.47;2.28;;;;;;;4.02;74.06;94693.75;5076343;28;20216;-64
2022/01/08 07:12:36;;;;;;;2.80;2.60;;;;;;;4.14;73.94;94698.59;5076154;28;20185;-65
2022/01/08 07:15:06;;;;;;;2.97;2.78;;;;;;;4.15;73.66;94693.94;5109521;28;20205;-64
2022/01/08 07:17:33;;;;;;;2.67;2.03;;;;;;;4.06;74.38;94686.53;5075412;28;20201;-64
2022/01/08 07:19:59;;;;;;;2.38;2.17;;;;;;;4.12;74.02;94691.84;5075945;28;20200;-64
2022/01/08 07:22:26;;;;;;;2.33;2.20;;;;;;;4.21;73.76;94690.72;5075449;28;20226;-64
2022/01/08 07:24:53;;;;;;;2.60;2.40;;;;;;;4.20;73.79;94694.56;5075965;28;20197;-64
2022/01/08 07:27:20;;;;;;;2.00;1.90;;;;;;;4.14;73.96;94686.84;5075753;28;20237;-64
2022/01/08 07:29:47;;;;;;;2.08;1.98;;;;;;;4.06;74.46;94685.72;5108873;28;20197;-64
2022/01/08 07:32:15;;;;;;;2.08;1.92;;;;;;;4.07;74.14;94688.16;5075608;28;20193;-64
2022/01/08 07:34:41;;;;;;;2.33;2.17;;;;;;;4.09;74.23;94687.81;5074722;28;20189;-64
2022/01/08 07:37:08;;;;;;;2.50;2.28;;;;;;;4.24;74.10;94689.28;5075756;28;20185;-64
2022/01/08 07:39:35;;;;;;;4.93;3.17;;;;;;;4.28;73.63;94687.50;5108590;28;20197;-64
2022/01/08 07:42:02;;;;;;;4.10;3.70;;;;;;;4.39;73.29;94696.16;5075628;28;20186;-64
2022/01/08 07:44:29;;;;;;;6.75;4.18;;;;;;;4.42;73.18;94698.25;5074689;28;20537;-64
2022/01/08 07:46:57;;;;;;;3.20;2.92;;;;;;;4.39;73.03;94699.69;5075518;28;20206;-64
2022/01/08 07:49:25;;;;;;;3.25;2.60;;;;;;;4.42;73.22;94693.59;5074378;28;20201;-64
2022/01/08 07:51:52;;;;;;;4.68;2.35;;;;;;;4.53;72.96;94689.41;5108173;28;20295;-64
2022/01/08 07:54:18;;;;;;;2.30;2.10;;;;;;;4.55;72.68;94689.09;5074973;28;20198;-64
2022/01/08 07:56:45;;;;;;;2.92;2.10;;;;;;;4.59;72.72;94690.84;5108089;28;20197;-64
2022/01/08 07:59:12;;;;;;;2.60;2.28;;;;;;;4.65;72.13;94699.69;5074022;28;20193;-64
2022/01/08 08:01:39;;;;;;;5.68;2.40;;;;;;;4.67;72.20;94691.94;5074928;28;20200;-64
2022/01/08 08:04:06;;;;;;;4.22;3.28;;;;;;;4.74;72.21;94700.44;5075150;28;20195;-64
2022/01/08 08:06:36;;;;;;;5.97;3.95;;;;;;;4.84;71.61;94696.59;5075102;28;20205;-64
2022/01/08 08:09:03;;;;;;;5.65;4.55;;;;;;;4.93;71.50;94691.09;5074502;28;20225;-64
2022/01/08 08:11:30;;;;;;;5.47;3.00;;;;;;;4.99;70.87;94700.72;5073983;28;20193;-64
2022/01/08 08:13:57;;;;;;;3.65;2.97;;;;;;;5.00;71.04;94691.38;5074196;28;20193;-64
2022/01/08 08:16:24;;;;;;;4.32;2.75;;;;;;;5.04;70.84;94700.53;5075278;28;20284;-64
2022/01/08 08:18:51;;;;;;;5.10;3.55;;;;;;;5.05;70.63;94692.03;5107532;28;20203;-64
2022/01/08 08:21:17;;;;;;;6.57;4.35;;;;;;;5.18;70.62;94697.59;5074225;28;20250;-64
2022/01/08 08:23:45;;;;;;;5.47;4.03;;;;;;;5.29;70.29;94683.22;5074247;28;20208;-64
2022/01/08 08:26:12;;;;;;;6.78;4.57;;;;;;;5.35;69.90;94685.78;5107641;28;20306;-64
2022/01/08 08:28:39;;;;;;;2.40;2.20;;;;;;;5.34;69.41;94671.31;5108344;28;20212;-64
2022/01/08 08:31:06;;;;;;;3.78;2.78;;;;;;;5.47;69.31;94683.94;5107470;28;20197;-64
2022/01/08 08:33:33;;;;;;;2.45;2.10;;;;;;;5.60;68.82;94679.38;5074954;28;20201;-64
2022/01/08 08:35:59;;;;;;;2.30;2.05;;;;;;;5.64;68.80;94674.84;5074731;28;20196;-64
2022/01/08 08:38:26;;;;;;;2.60;2.40;;;;;;;5.78;68.17;94675.41;5107939;28;20193;-64
2022/01/08 08:40:54;;;;;;;2.22;2.08;;;;;;;5.82;68.17;94681.03;5074549;28;20208;-64
2022/01/08 08:43:21;;;;;;;2.30;2.03;;;;;;;5.95;68.01;94668.22;5074890;28;20198;-64
2022/01/08 08:45:48;;;;;;;3.25;2.30;;;;;;;6.06;67.61;94671.38;5074810;28;20181;-64
2022/01/08 08:48:15;;;;;;;2.72;2.33;;;;;;;6.12;66.80;94668.09;5074845;28;20542;-64
2022/01/08 08:50:42;;;;;;;4.15;3.72;;;;;;;6.24;66.87;94662.69;5073870;28;20197;-64
2022/01/08 08:53:09;;;;;;;3.17;2.60;;;;;;;6.29;66.93;94660.91;5074851;28;20196;-64
2022/01/08 08:55:36;;;;;;;4.00;2.85;;;;;;;6.39;66.54;94654.97;5074797;28;20251;-64
2022/01/08 08:58:04;;;;;;;3.10;2.63;;;;;;;6.35;66.42;94657.59;5074850;28;20213;-64
2022/01/08 09:00:31;;;;;;;5.13;2.70;;;;;;;6.34;66.69;94650.53;5073870;28;20190;-64
2022/01/08 09:02:58;;;;;;;3.50;2.25;;;;;;;6.44;66.24;94652.06;5107600;28;20207;-64
2022/01/08 09:05:25;;;;;;;3.25;2.33;;;;;;;6.50;65.71;94645.22;5074415;28;20610;-64
2022/01/08 09:07:52;;;;;;;3.50;2.30;;;;;;;6.49;66.33;94640.88;5074581;28;20221;-64
2022/01/08 09:10:23;;;;;;;2.40;2.20;;;;;;;6.48;65.82;94647.50;5073905;28;20197;-64
2022/01/08 09:12:50;;;;;;;2.63;2.40;;;;;;;6.54;66.40;94639.88;5108945;28;20231;-64
2022/01/08 09:15:21;;;;;;;2.72;2.10;;;;;;;6.61;65.60;94632.72;5078274;28;20218;-64
2022/01/08 09:17:48;;;;;;;2.92;1.85;;;;;;;6.64;65.24;94633.94;5077296;28;20190;-64
2022/01/08 09:20:16;;;;;;;3.70;2.00;;;;;;;6.52;65.64;94629.25;5077811;28;20300;-64
2022/01/08 09:22:43;;;;;;;2.30;2.10;;;;;;;6.55;65.79;94628.56;5077064;28;20216;-64
2022/01/08 09:25:11;;;;;;;2.20;2.03;;;;;;;6.46;65.85;94623.19;5077993;28;20276;-64
2022/01/08 09:27:38;;;;;;;2.67;2.30;;;;;;;6.46;65.92;94614.97;5077298;28;20224;-64
2022/01/08 09:30:05;;;;;;;2.35;2.15;;;;;;;6.48;66.16;94617.34;5077516;28;20189;-64
2022/01/08 09:32:34;;;;;;;3.50;3.20;;;;;;;6.55;66.13;94616.81;5077926;28;20192;-64
2022/01/08 09:35:01;;;;;;;3.20;2.13;;;;;;;6.40;66.00;94615.50;5077298;28;20201;-64
2022/01/08 09:37:27;;;;;;;3.25;2.33;;;;;;;6.26;66.28;94610.31;5077032;28;20616;-64
2022/01/08 09:39:54;;;;;;;2.33;2.15;;;;;;;6.17;66.49;94613.16;5077873;28;20192;-64
2022/01/08 09:42:21;;;;;;;2.15;2.05;;;;;;;6.11;66.82;94600.78;5076967;28;20570;-64
2022/01/08 09:44:48;;;;;;;2.00;1.90;;;;;;;6.14;66.28;94594.66;5077539;28;20594;-64
2022/01/08 09:47:15;;;;;;;2.50;2.30;;;;;;;5.94;67.13;94593.53;5076516;28;20694;-64
2022/01/08 09:49:43;;;;;;;2.40;2.10;;;;;;;5.97;67.41;94594.78;5077833;28;20182;-64
2022/01/08 09:52:10;;;;;;;2.10;2.00;;;;;;;6.05;66.77;94599.38;5076821;28;20200;-64
2022/01/08 09:54:37;;;;;;;2.38;2.15;;;;;;;6.14;67.03;94589.19;5077404;28;20300;-64
2022/01/08 09:57:04;;;;;;;2.40;2.20;;;;;;;6.17;66.73;94588.50;5077411;28;20195;-64
2022/01/08 09:59:31;;;;;;;3.97;2.20;;;;;;;6.11;66.70;94583.56;5076397;28;20644;-64
2022/01/08 10:01:59;;;;;;;2.85;2.65;;;;;;;6.03;66.79;94579.78;5076440;28;20197;-64
2022/01/08 10:04:27;;;;;;;4.32;3.45;;;;;;;5.97;67.11;94575.63;5076389;28;20248;-64
2022/01/08 10:07:14;;;;;;;3.70;3.00;;;;;;;5.91;67.32;94575.00;5076289;28;20636;-64
2022/01/08 10:10:00;;;;;;;2.83;2.60;;;;;;;5.79;67.59;94564.00;5076092;28;20207;-64
2022/01/08 10:12:38;;;;;;;4.00;2.50;;;;;;;5.77;68.05;94569.81;5077184;28;20185;-64
2022/01/08 10:17:51;;;;;;;5.45;2.70;;;;;;;6.14;67.50;94564.53;5076843;28;20201;-64
2022/01/08 10:20:28;;;;;;;2.70;2.10;;;;;;;5.89;67.71;94566.34;5077143;28;20196;-64
2022/01/08 10:23:01;;;;;;;3.30;2.30;;;;;;;5.94;67.89;94557.94;5076481;28;20189;-64
2022/01/08 10:25:27;;;;;;;1.90;1.80;;;;;;;5.82;68.09;94559.81;5076902;28;20320;-64
2022/01/08 10:27:54;;;;;;;3.78;2.38;;;;;;;5.87;68.32;94551.38;5077034;28;20224;-64
2022/01/08 10:30:25;;;;;;;3.45;2.13;;;;;;;5.78;67.89;94551.47;5076139;28;20193;-64
2022/01/08 10:32:56;;;;;;;2.40;2.20;;;;;;;5.90;67.67;94548.75;5076380;28;20663;-64
2022/01/08 10:35:47;;;;;;;2.13;2.03;;;;;;;5.69;68.57;94540.56;5075824;28;20199;-64
2022/01/08 10:38:15;;;;;;;2.30;2.10;;;;;;;5.80;68.60;94541.75;5077120;28;20185;-64
2022/01/08 10:40:42;;;;;;;2.30;2.15;;;;;;;5.84;68.71;94538.34;5076375;28;20181;-64
2022/01/08 10:43:21;;;;;;;2.50;2.30;;;;;;;5.88;68.19;94534.63;5077629;28;20288;-64
2022/01/08 10:45:48;;;;;;;2.35;2.15;;;;;;;5.95;68.10;94528.63;5076004;28;20185;-64
2022/01/08 10:48:28;;;;;;;2.78;2.58;;;;;;;6.00;67.92;94531.97;5075931;28;20660;-64
2022/01/08 10:50:55;;;;;;;3.42;3.13;;;;;;;6.07;67.76;94531.41;5076163;28;20201;-64
2022/01/08 10:53:25;;;;;;;3.10;2.80;;;;;;;6.12;67.24;94522.97;5076382;28;20177;-64
2022/01/08 10:55:52;;;;;;;4.97;2.65;;;;;;;6.11;67.48;94524.13;5075273;28;20190;-64
2022/01/08 10:58:42;;;;;;;2.85;2.63;;;;;;;6.17;67.54;94519.22;5075860;28;20197;-64
2022/01/08 11:01:09;;;;;;;2.80;2.60;;;;;;;6.12;66.95;94519.44;5076464;28;20193;-64
2022/01/08 11:03:40;;;;;;;2.90;2.70;;;;;;;5.97;67.67;94524.41;5076359;28;20191;-64
2022/01/08 11:06:07;;;;;;;3.20;2.90;;;;;;;6.02;68.11;94521.47;5075672;28;20267;-64
2022/01/08 11:08:35;;;;;;;2.70;2.50;;;;;;;5.94;67.72;94507.88;5075275;28;20560;-64
2022/01/08 11:11:02;;;;;;;3.30;2.90;;;;;;;5.91;68.12;94514.78;5076108;28;20276;-64
2022/01/08 11:13:29;;;;;;;3.08;2.88;;;;;;;5.94;68.37;94513.34;5075819;28;20185;-64
2022/01/08 11:15:56;;;;;;;3.90;2.63;;;;;;;6.03;68.20;94511.34;5075564;28;20181;-64
2022/01/08 11:18:23;;;;;;;6.80;4.00;;;;;;;6.12;67.59;94509.28;5075541;28;20185;-64
2022/01/08 11:20:50;;;;;;;4.60;3.65;;;;;;;6.29;67.12;94510.25;5075021;28;20189;-64
2022/01/08 11:23:22;;;;;;;2.85;2.65;;;;;;;6.29;66.57;94508.31;5074635;28;20201;-64
2022/01/08 11:25:52;;;;;;;4.20;3.42;;;;;;;6.27;67.10;94494.94;5075236;28;20228;-64
2022/01/08 11:28:19;;;;;;;2.58;2.38;;;;;;;6.17;67.07;94502.78;5075379;28;20209;-64
2022/01/08 11:30:52;;;;;;;3.13;2.63;;;;;;;6.25;67.62;94496.44;5075165;28;20181;-64
2022/01/08 11:33:23;;;;;;;2.40;2.30;;;;;;;6.11;67.67;94494.00;5074417;28;20201;-64
2022/01/08 11:35:52;;;;;;;2.40;2.30;;;;;;;6.11;67.01;94498.69;5074809;28;20212;-64
2022/01/08 11:38:20;;;;;;;2.90;2.70;;;;;;;6.12;67.43;94495.59;5075417;28;20189;-64
2022/01/08 11:40:50;;;;;;;2.80;2.60;;;;;;;6.14;67.47;94492.53;5075337;28;20208;-64
2022/01/08 11:43:19;;;;;;;3.20;2.90;;;;;;;6.11;67.52;94493.22;5075412;28;20185;-64
2022/01/08 11:45:48;;;;;;;2.85;2.65;;;;;;;6.03;67.85;94478.47;5075175;28;20515;-64
2022/01/08 11:48:16;;;;;;;4.95;3.92;;;;;;;6.12;68.13;94476.44;5074840;28;20231;-64
2022/01/08 11:50:51;;;;;;;6.57;4.20;;;;;;;6.38;67.45;94475.34;5074428;28;20204;-64
2022/01/08 11:53:19;;;;;;;3.63;3.33;;;;;;;6.47;67.30;94473.31;5075195;28;20212;-64
2022/01/08 11:55:48;;;;;;;3.03;2.83;;;;;;;6.70;65.61;94468.16;5075081;28;20203;-64
2022/01/08 11:58:23;;;;;;;3.20;3.00;;;;;;;7.02;64.77;94466.44;5075553;28;20195;-64
2022/01/08 12:00:52;;;;;;;3.33;3.00;;;;;;;7.06;64.47;94464.59;5075153;28;20196;-64
2022/01/08 12:03:24;;;;;;;3.10;2.90;;;;;;;7.02;64.73;94465.66;5074427;28;20209;-64
2022/01/08 12:05:51;;;;;;;3.50;3.20;;;;;;;7.26;63.66;94460.09;5074738;28;20199;-64
2022/01/08 12:08:19;;;;;;;4.72;3.13;;;;;;;7.54;62.91;94459.34;5074609;28;20197;-64
2022/01/08 12:11:00;;;;;;;2.53;2.33;;;;;;;7.32;63.04;94455.97;5075239;28;20193;-64